Silver Lake, OR (97638)

6:15 PM PDT on October 21, 2014 (GMT -0700)
CHC | Change Station
CLOSE
Current Station
Personal Weather Station
Location: Christmas Valley, OR
Elevation: 4318 ft
Nearby Weather Stations
Active Advisory: Wind Advisory

Elev 4318 ft 43.25 °N, 120.69 °W | Updated 10 minutes ago

Clear
Clear
46.6 °F
Feels Like 47 °F
N
2.7
Wind Variable Wind from SE

Today
High -- | Low -- °F
--% Chance of Precip.
Yesterday
High -- | Low -- °F
Precip. -- in
7:25 AM 6:11 PM
Waning Crescent, 3% visible
Pressure 30.02 in
Visibility 10.0 miles
Clouds Clear
Windchill 47 °F
Dew Point 34 °F
Humidity 62%
Rainfall 0.00 in
Snow Depth 0 in
UV 0 out of 12
Pollen .40 out of 12
Air Quality Not available.
Flu Activity Sporadic
METAR KBDN 220055Z AUTO 21009KT 10SM CLR 11/02 A3002 RMK AO2

More Conditions Fewer Conditions

Pressure 30.02 in
Visibility 10.0 miles
Clouds Clear
Windchill 47 °F
Dew Point 34 °F
Humidity 62%
Rainfall 0.00 in
Snow Depth 0 in
UV 0 out of 12
Pollen .40 out of 12
Air Quality Not available.
Flu Activity Sporadic
METAR KBDN 220055Z AUTO 21009KT 10SM CLR 11/02 A3002 RMK AO2

More Conditions Fewer Conditions

10-Day Weather Forecast

Almanac

Astronomy

Oct. 21, 2014 Rise Set
Actual Time 7:25 AM PDT 6:11 PM PDT
Civil Twilight 6:56 AM PDT 6:40 PM PDT
Nautical Twilight 6:23 AM PDT 7:13 PM PDT
Astronomical Twilight 5:50 AM PDT 7:46 PM PDT
Moon 5:11 AM PDT (10/21) 5:11 PM PDT (10/21)
Length of Visible Light 11h 44m
Length of Day
10h 46m
Tomorrow will be 2m 46s shorter.
Waning Crescent, 3% of the Moon is Illuminated
Today
Waning Crescent
Oct 23
New
Oct 30
First Quarter
Nov 6
Full
Nov 14
Last Quarter

Today's Extremes

State Highs State Lows

Community

WunderPhotos

Upload Photos

1,763,841 photos uploaded!

Nearby

Snow Depth

Station Depth Elevation
Silver Creek 0 in 5720 ft
Summer Rim 0 in 7100 ft
Chemult Alternate 0 in 4760 ft
New Crescent Lake 0 in 4800 ft
Diamond Lake 0 in 5315 ft

Earthquake Activity

City Distance Mag. Time & Date
No recent earthquake activity has been reported nearby.
Minimum magnitude displayed is 2.5.

Coastal Water Temperatures

Place Temperature
No Stations Reporting

Nearby Weather Stations